Time;durP1;ratioP1;P1;durP2;ratioP2;P2;SDS_P1;SDS_P2;PMS_P1;PMS_P2;Temp;Humidity;BMP_temperature;BMP_pressure;BME280_temperature;BME280_humidity;BME280_pressure;Samples;Min_cycle;Max_cycle;Signal;HPM_P1;HPM_P2
2021/12/20 00:01:42;;;;;;;9.38;4.40;;;5.80;71.90;;;;;;2361000;53;20964;-74
2021/12/20 00:04:09;;;;;;;9.23;4.75;;;5.80;71.90;;;;;;2355374;53;21365;-75
2021/12/20 00:06:35;;;;;;;9.52;4.55;;;5.80;71.80;;;;;;2372104;54;21515;-75
2021/12/20 00:09:02;;;;;;;9.25;4.40;;;5.80;71.80;;;;;;2365038;53;20964;-75
2021/12/20 00:11:30;;;;;;;9.27;4.47;;;5.80;71.80;;;;;;2358743;53;20971;-75
2021/12/20 00:13:56;;;;;;;9.40;4.68;;;5.80;71.80;;;;;;2350942;53;21031;-75
2021/12/20 00:16:22;;;;;;;9.85;4.80;;;5.80;71.80;;;;;;2368650;54;20999;-75
2021/12/20 00:18:48;;;;;;;8.93;4.55;;;5.80;71.70;;;;;;2400425;52;20992;-75
2021/12/20 00:21:15;;;;;;;9.32;5.12;;;5.80;71.70;;;;;;2371684;54;20952;-75
2021/12/20 00:23:41;;;;;;;7.87;4.53;;;5.80;71.70;;;;;;2372115;54;20988;-75
2021/12/20 00:26:09;;;;;;;10.43;4.85;;;5.80;71.70;;;;;;2618721;52;21000;-75
2021/12/20 00:28:36;;;;;;;9.85;4.22;;;5.80;71.70;;;;;;2352520;53;20937;-75
2021/12/20 00:31:03;;;;;;;9.82;4.22;;;5.80;71.70;;;;;;2408304;52;20971;-75
2021/12/20 00:33:33;;;;;;;10.45;5.40;;;5.80;72.50;;;;;;2605997;52;20944;-75
2021/12/20 00:36:07;;;;;;;8.43;4.70;;;5.80;71.70;;;;;;2364405;53;21672;-75
2021/12/20 00:41:18;;;;;;;8.07;4.28;;;5.80;71.70;;;;;;2372064;54;20937;-75
2021/12/20 00:43:45;;;;;;;8.52;3.83;;;5.80;71.70;;;;;;2402269;52;21003;-75
2021/12/20 00:46:12;;;;;;;8.88;4.87;;;5.80;71.80;;;;;;2360049;53;20968;-75
2021/12/20 00:48:39;;;;;;;8.50;4.68;;;5.80;71.80;;;;;;2434950;52;20960;-75
2021/12/20 00:51:05;;;;;;;8.32;4.37;;;5.80;71.70;;;;;;2412292;52;20904;-75
2021/12/20 00:53:33;;;;;;;8.25;4.47;;;5.80;71.60;;;;;;2400961;52;20936;-75
2021/12/20 00:55:59;;;;;;;8.40;4.40;;;5.80;71.70;;;;;;2367400;53;21019;-75
2021/12/20 00:58:25;;;;;;;9.63;4.03;;;5.80;71.60;;;;;;2357416;53;21043;-75
2021/12/20 01:00:51;;;;;;;8.10;3.70;;;5.80;71.60;;;;;;2375456;53;20969;-75
2021/12/20 01:03:19;;;;;;;7.05;3.62;;;5.80;71.60;;;;;;2385714;52;21024;-75
2021/12/20 01:05:48;;;;;;;7.85;3.47;;;5.80;71.70;;;;;;2493712;52;20967;-75
2021/12/20 01:08:15;;;;;;;8.88;4.78;;;5.80;71.70;;;;;;2520652;52;21586;-75
2021/12/20 01:10:45;;;;;;;6.57;3.60;;;5.80;71.70;;;;;;2395436;52;20933;-75
2021/12/20 01:13:13;;;;;;;8.80;4.65;;;5.80;71.70;;;;;;2596631;52;21355;-75
2021/12/20 01:15:45;;;;;;;8.27;4.07;;;5.80;71.60;;;;;;2624903;52;21004;-75
2021/12/20 01:18:12;;;;;;;7.00;3.53;;;5.80;71.60;;;;;;2375058;53;20933;-75
2021/12/20 01:20:38;;;;;;;9.40;4.32;;;5.80;71.60;;;;;;2453108;52;20937;-75
2021/12/20 01:23:04;;;;;;;8.93;4.30;;;5.80;71.60;;;;;;2351568;53;20952;-75
2021/12/20 01:25:31;;;;;;;7.20;3.78;;;5.80;71.50;;;;;;2372125;54;21414;-75
2021/12/20 01:27:58;;;;;;;6.97;3.75;;;5.80;71.50;;;;;;2372509;54;20996;-75
2021/12/20 01:30:27;;;;;;;7.80;3.65;;;5.80;71.50;;;;;;2458898;52;21377;-75
2021/12/20 01:32:55;;;;;;;8.73;4.05;;;5.80;71.50;;;;;;2503924;52;21898;-75
2021/12/20 01:35:23;;;;;;;8.57;4.00;;;5.80;71.60;;;;;;2357400;53;20991;-75
2021/12/20 01:37:49;;;;;;;8.63;3.92;;;5.80;71.50;;;;;;2406567;53;20889;-75
2021/12/20 01:40:16;;;;;;;8.85;4.60;;;5.80;71.50;;;;;;2357272;53;20936;-75
2021/12/20 01:42:42;;;;;;;8.88;4.15;;;5.80;71.50;;;;;;2365883;53;21012;-75
2021/12/20 01:45:19;;;;;;;9.02;4.25;;;5.80;71.60;;;;;;2372075;54;21315;-75
2021/12/20 01:47:49;;;;;;;8.73;4.53;;;5.80;71.50;;;;;;2352498;54;20960;-75
2021/12/20 01:50:23;;;;;;;9.35;4.57;;;5.80;71.60;;;;;;2431810;52;21047;-75
2021/12/20 01:52:51;;;;;;;9.70;4.82;;;5.80;71.60;;;;;;2425990;52;20980;-75
2021/12/20 01:55:19;;;;;;;10.85;5.35;;;5.80;71.50;;;;;;2393809;52;20949;-75
2021/12/20 01:57:45;;;;;;;9.85;4.78;;;5.80;71.50;;;;;;2396413;52;21027;-75
2021/12/20 02:00:21;;;;;;;10.68;5.62;;;5.80;71.50;;;;;;2353808;53;20916;-75
2021/12/20 02:02:47;;;;;;;9.07;4.68;;;5.80;71.50;;;;;;2375199;53;21813;-75
2021/12/20 02:05:22;;;;;;;8.80;4.20;;;5.80;71.50;;;;;;2623814;52;21488;-75
2021/12/20 02:07:59;;;;;;;9.35;4.28;;;5.80;71.60;;;;;;2337836;54;20976;-75
2021/12/20 02:10:26;;;;;;;9.15;4.53;;;5.80;71.70;;;;;;2485297;52;20964;-75
2021/12/20 02:12:53;;;;;;;10.30;4.70;;;5.80;71.60;;;;;;2444856;52;21036;-75
2021/12/20 02:15:19;;;;;;;7.28;3.95;;;5.80;71.70;;;;;;2414131;52;20901;-75
2021/12/20 02:17:46;;;;;;;7.97;4.50;;;5.90;71.80;;;;;;2372438;54;20957;-75
2021/12/20 02:20:25;;;;;;;10.80;4.72;;;5.80;71.70;;;;;;2613797;52;21072;-75
2021/12/20 02:22:58;;;;;;;8.05;4.22;;;5.80;71.70;;;;;;2356200;53;21031;-74
2021/12/20 02:25:25;;;;;;;7.78;3.97;;;5.90;71.80;;;;;;2357283;53;20989;-75
2021/12/20 02:27:51;;;;;;;9.32;4.32;;;5.90;71.90;;;;;;2355251;53;20995;-75
2021/12/20 02:37:27;;;;;;;5.70;2.70;;;5.90;71.70;;;;;;2396423;53;20941;-75
2021/12/20 02:39:53;;;;;;;5.37;2.72;;;5.90;71.70;;;;;;2352159;54;20945;-74
2021/12/20 02:42:25;;;;;;;5.05;2.40;;;5.90;71.60;;;;;;2350161;53;20968;-75
2021/12/20 02:45:03;;;;;;;4.82;2.25;;;5.90;71.60;;;;;;2437506;52;21008;-75
2021/12/20 02:47:29;;;;;;;4.87;2.10;;;5.90;71.60;;;;;;2613684;52;20961;-75
2021/12/20 02:49:57;;;;;;;4.60;2.28;;;5.90;71.60;;;;;;2440176;52;21511;-75
2021/12/20 02:52:25;;;;;;;3.72;1.83;;;5.90;71.60;;;;;;2337763;54;20944;-75
2021/12/20 02:54:52;;;;;;;3.70;1.90;;;5.90;71.60;;;;;;2508221;52;20974;-75
2021/12/20 02:57:19;;;;;;;3.90;1.85;;;5.90;71.70;;;;;;2370551;53;21009;-75
2021/12/20 02:59:45;;;;;;;3.95;1.90;;;5.90;71.70;;;;;;2352411;53;21015;-75
2021/12/20 03:02:11;;;;;;;3.37;1.70;;;5.90;72.40;;;;;;2372718;54;20956;-75
2021/12/20 03:04:37;;;;;;;4.72;2.33;;;5.90;71.70;;;;;;2351538;53;20929;-75
2021/12/20 03:07:07;;;;;;;4.55;2.40;;;6.00;71.80;;;;;;2431019;52;20943;-75
2021/12/20 03:09:38;;;;;;;4.72;2.42;;;6.00;71.80;;;;;;2396301;52;20984;-74
2021/12/20 03:12:06;;;;;;;4.97;2.50;;;6.00;71.80;;;;;;2348638;53;20932;-75
2021/12/20 03:14:38;;;;;;;4.10;2.47;;;6.00;71.80;;;;;;2399959;52;20940;-75
2021/12/20 03:17:04;;;;;;;4.57;2.67;;;6.00;71.70;;;;;;2504615;52;21559;-74
2021/12/20 03:19:31;;;;;;;5.32;2.35;;;6.00;71.60;;;;;;2351599;53;21039;-75
2021/12/20 03:21:57;;;;;;;4.87;2.40;;;6.00;71.60;;;;;;2368776;54;21000;-75
2021/12/20 03:24:23;;;;;;;6.35;2.87;;;6.00;71.60;;;;;;2353640;53;20900;-75
2021/12/20 03:26:51;;;;;;;4.65;2.25;;;6.00;71.50;;;;;;2451561;52;20918;-75
2021/12/20 03:29:19;;;;;;;4.15;2.25;;;5.90;71.50;;;;;;2421522;52;21422;-75
2021/12/20 03:31:46;;;;;;;4.40;2.17;;;6.00;71.70;;;;;;2599402;52;21020;-75
2021/12/20 03:34:12;;;;;;;6.50;2.65;;;6.00;71.80;;;;;;2351249;53;21008;-75
2021/12/20 03:36:38;;;;;;;5.43;2.85;;;6.00;71.90;;;;;;2372520;54;20968;-75
2021/12/20 03:39:06;;;;;;;4.97;2.80;;;6.00;71.90;;;;;;2372382;54;20893;-75
2021/12/20 03:41:32;;;;;;;4.53;2.30;;;6.00;71.80;;;;;;2624778;52;21634;-75
2021/12/20 03:43:58;;;;;;;4.53;2.17;;;6.00;71.70;;;;;;2596495;52;20937;-75
2021/12/20 03:46:24;;;;;;;4.10;1.90;;;6.00;71.50;;;;;;2353044;52;20976;-75
2021/12/20 03:48:51;;;;;;;6.57;2.87;;;6.00;71.50;;;;;;2371431;54;20964;-75
2021/12/20 03:51:17;;;;;;;6.82;2.92;;;6.00;71.60;;;;;;2366924;53;20964;-75
2021/12/20 03:53:43;;;;;;;6.03;2.83;;;5.90;71.40;;;;;;2368979;53;21522;-75
2021/12/20 03:56:10;;;;;;;6.70;2.70;;;6.00;71.50;;;;;;2427618;52;20945;-76
2021/12/20 03:58:36;;;;;;;5.07;2.50;;;6.00;71.60;;;;;;2353202;53;20956;-75
2021/12/20 04:01:06;;;;;;;4.75;2.60;;;6.00;71.60;;;;;;2372802;54;20956;-75
2021/12/20 04:03:35;;;;;;;5.10;2.58;;;6.00;71.70;;;;;;2568250;52;21523;-75
2021/12/20 04:06:06;;;;;;;4.57;2.05;;;6.00;71.70;;;;;;2596637;52;21016;-75
2021/12/20 04:08:32;;;;;;;5.65;2.53;;;6.00;71.70;;;;;;2352442;54;20988;-76
2021/12/20 04:10:58;;;;;;;5.12;2.67;;;6.00;71.70;;;;;;2581445;52;21005;-75
2021/12/20 04:13:25;;;;;;;5.15;2.15;;;6.00;71.70;;;;;;2364157;53;21015;-75
2021/12/20 04:15:53;;;;;;;5.55;2.55;;;6.00;71.60;;;;;;2356286;53;21859;-75
2021/12/20 04:18:20;;;;;;;5.15;2.92;;;6.00;71.70;;;;;;2365336;52;20900;-75
2021/12/20 04:20:46;;;;;;;6.75;3.15;;;6.00;71.60;;;;;;2354800;53;20952;-75
2021/12/20 04:23:13;;;;;;;5.12;2.55;;;6.00;71.60;;;;;;2371813;54;20940;-75
2021/12/20 04:25:39;;;;;;;4.32;2.35;;;6.00;71.60;;;;;;2362714;53;21008;-75
2021/12/20 04:28:05;;;;;;;5.32;2.72;;;6.00;71.60;;;;;;2564857;52;20928;-75
2021/12/20 04:30:33;;;;;;;3.87;2.10;;;6.00;71.50;;;;;;2373170;53;20975;-75
2021/12/20 04:32:59;;;;;;;4.10;1.85;;;6.00;71.50;;;;;;2380457;52;20948;-75
2021/12/20 04:35:26;;;;;;;5.30;2.55;;;6.00;71.50;;;;;;2363878;53;21075;-75
2021/12/20 04:37:53;;;;;;;4.47;2.00;;;6.00;71.60;;;;;;2349694;53;21004;-75
2021/12/20 04:40:21;;;;;;;4.95;2.50;;;6.00;71.60;;;;;;2372089;54;20952;-75
2021/12/20 04:42:49;;;;;;;4.80;2.50;;;6.00;71.60;;;;;;2380496;52;20972;-75
2021/12/20 04:45:16;;;;;;;5.37;2.47;;;6.00;71.60;;;;;;2348168;53;21734;-75
2021/12/20 04:47:42;;;;;;;5.53;2.65;;;6.00;71.60;;;;;;2353394;53;20993;-75
2021/12/20 04:50:09;;;;;;;5.00;2.67;;;6.00;72.00;;;;;;2473121;52;20928;-75
2021/12/20 04:52:37;;;;;;;7.70;3.58;;;6.00;71.70;;;;;;2371265;54;21027;-75
2021/12/20 04:55:07;;;;;;;7.62;3.85;;;5.90;71.50;;;;;;2351679;53;20920;-75
2021/12/20 04:57:33;;;;;;;7.90;4.37;;;6.00;71.70;;;;;;2483794;52;20949;-75
2021/12/20 04:59:59;;;;;;;7.03;3.78;;;6.00;71.60;;;;;;2371975;54;21568;-75
2021/12/20 05:02:26;;;;;;;11.77;6.15;;;6.00;71.60;;;;;;2401072;52;20920;-76
2021/12/20 05:04:53;;;;;;;9.60;4.40;;;6.00;72.20;;;;;;2386741;52;21007;-75
2021/12/20 05:07:19;;;;;;;7.68;4.05;;;6.00;71.50;;;;;;2448183;52;21433;-75
2021/12/20 05:09:46;;;;;;;5.15;2.72;;;6.00;71.50;;;;;;2368014;52;21015;-75
2021/12/20 05:12:14;;;;;;;6.93;3.42;;;6.00;71.40;;;;;;2358296;53;20957;-75
2021/12/20 05:14:44;;;;;;;6.40;3.03;;;6.00;71.40;;;;;;2529637;53;20940;-75
2021/12/20 05:17:11;;;;;;;5.43;3.00;;;6.00;71.40;;;;;;2360544;53;20958;-75
2021/12/20 05:19:38;;;;;;;5.75;2.60;;;6.00;71.40;;;;;;2372048;54;20960;-75
2021/12/20 05:22:04;;;;;;;5.05;2.33;;;5.90;71.20;;;;;;2371777;54;20944;-75
2021/12/20 05:24:31;;;;;;;3.85;2.20;;;5.90;71.20;;;;;;2371558;54;20985;-75
2021/12/20 05:26:59;;;;;;;5.15;2.55;;;5.90;71.20;;;;;;2367828;53;20952;-75
2021/12/20 05:29:25;;;;;;;5.37;2.83;;;5.90;71.20;;;;;;2349914;53;21000;-75
2021/12/20 05:31:52;;;;;;;6.15;2.90;;;5.90;71.00;;;;;;2358798;53;20948;-75
2021/12/20 05:34:18;;;;;;;6.40;2.83;;;5.90;70.90;;;;;;2402621;52;21515;-75
2021/12/20 05:36:45;;;;;;;8.35;3.83;;;5.90;71.00;;;;;;2371707;54;20952;-76
2021/12/20 05:39:11;;;;;;;7.87;3.90;;;5.80;71.00;;;;;;2590211;52;20989;-75
2021/12/20 05:41:40;;;;;;;9.30;4.03;;;5.80;70.90;;;;;;2429286;52;20971;-75
2021/12/20 05:44:06;;;;;;;5.90;3.65;;;5.80;70.80;;;;;;2369613;54;20975;-75
2021/12/20 05:46:32;;;;;;;7.03;3.87;;;5.80;70.80;;;;;;2384236;53;20960;-75
2021/12/20 05:48:59;;;;;;;7.18;3.85;;;5.80;70.80;;;;;;2440312;52;21000;-75
2021/12/20 05:51:25;;;;;;;8.20;3.90;;;5.70;70.80;;;;;;2354697;53;21251;-75
2021/12/20 05:53:51;;;;;;;7.65;4.18;;;5.70;70.80;;;;;;2373474;52;20980;-75
2021/12/20 05:56:18;;;;;;;6.15;3.37;;;5.70;70.70;;;;;;2501540;52;21025;-75
2021/12/20 05:58:46;;;;;;;6.07;3.22;;;5.70;70.80;;;;;;2355146;53;20975;-75
2021/12/20 06:01:12;;;;;;;8.32;4.10;;;5.70;70.80;;;;;;2352145;53;20960;-75
2021/12/20 06:03:38;;;;;;;5.72;3.33;;;5.70;70.80;;;;;;2413872;52;21015;-75
2021/12/20 06:06:05;;;;;;;7.03;3.53;;;5.60;70.70;;;;;;2353722;53;20956;-75
2021/12/20 06:08:31;;;;;;;5.85;3.40;;;5.60;70.80;;;;;;2612569;52;20906;-75
2021/12/20 06:10:59;;;;;;;6.25;3.17;;;5.60;71.00;;;;;;2352650;53;20932;-75
2021/12/20 06:13:25;;;;;;;7.25;3.60;;;5.60;71.00;;;;;;2361689;53;21119;-75
2021/12/20 06:15:52;;;;;;;7.25;3.80;;;5.60;71.10;;;;;;2408029;52;20960;-75
2021/12/20 06:18:19;;;;;;;6.85;3.60;;;5.60;71.10;;;;;;2370624;54;20909;-75
2021/12/20 06:20:45;;;;;;;7.95;4.12;;;5.50;71.00;;;;;;2595155;52;21023;-75
2021/12/20 06:23:12;;;;;;;6.53;4.10;;;5.60;71.00;;;;;;2374748;52;20944;-75
2021/12/20 06:25:40;;;;;;;7.05;3.60;;;5.60;70.90;;;;;;2487145;52;21325;-75
2021/12/20 06:28:07;;;;;;;6.40;3.45;;;5.60;71.00;;;;;;2362240;53;20961;-75
2021/12/20 06:30:33;;;;;;;6.62;3.78;;;5.60;71.00;;;;;;2372013;54;20935;-75
2021/12/20 06:33:00;;;;;;;7.43;3.87;;;5.60;71.00;;;;;;2378673;52;20988;-75
2021/12/20 06:35:34;;;;;;;6.60;3.80;;;5.60;71.00;;;;;;2507114;52;20917;-75
2021/12/20 06:38:02;;;;;;;7.40;3.87;;;5.60;71.00;;;;;;2372462;54;20924;-75
2021/12/20 06:40:29;;;;;;;8.88;4.62;;;5.50;70.80;;;;;;2499260;52;21005;-75
2021/12/20 06:42:55;;;;;;;7.22;3.90;;;5.50;70.70;;;;;;2471337;52;20993;-75
2021/12/20 06:45:21;;;;;;;7.00;3.72;;;5.50;70.70;;;;;;2370916;54;20922;-75
2021/12/20 06:47:48;;;;;;;6.20;3.37;;;5.50;70.70;;;;;;2352906;53;20944;-75
2021/12/20 06:50:15;;;;;;;6.75;3.40;;;5.50;70.60;;;;;;2367053;53;21000;-75
2021/12/20 06:52:42;;;;;;;6.07;3.28;;;5.50;71.30;;;;;;2346159;53;20980;-75
2021/12/20 06:55:09;;;;;;;6.85;3.17;;;5.50;70.70;;;;;;2469280;52;20952;-75
2021/12/20 06:57:39;;;;;;;7.70;4.03;;;5.40;70.50;;;;;;2358960;53;20993;-75
2021/12/20 07:00:06;;;;;;;8.32;4.03;;;5.40;70.50;;;;;;2517715;52;21523;-75
2021/12/20 07:02:32;;;;;;;6.45;3.33;;;5.40;70.60;;;;;;2358380;53;20939;-75
2021/12/20 07:04:58;;;;;;;7.72;3.67;;;5.40;70.60;;;;;;2347797;53;21787;-75
2021/12/20 07:07:25;;;;;;;6.78;3.30;;;5.40;70.70;;;;;;2498703;52;20972;-74
2021/12/20 07:09:51;;;;;;;7.25;3.70;;;5.40;70.70;;;;;;2351902;53;21016;-75
2021/12/20 07:12:18;;;;;;;8.10;3.65;;;5.40;70.80;;;;;;2525530;52;20964;-76
2021/12/20 07:14:49;;;;;;;7.28;3.47;;;5.40;70.80;;;;;;2371464;54;20941;-75
2021/12/20 07:17:16;;;;;;;6.87;3.47;;;5.40;70.80;;;;;;2624124;52;20992;-75
2021/12/20 07:19:42;;;;;;;7.57;3.33;;;5.40;70.80;;;;;;2461623;52;20921;-75
2021/12/20 07:22:09;;;;;;;6.00;3.08;;;5.30;70.80;;;;;;2350281;53;20972;-75
2021/12/20 07:24:35;;;;;;;7.03;3.75;;;5.30;70.80;;;;;;2375925;53;21487;-75
2021/12/20 07:27:01;;;;;;;6.90;3.40;;;5.30;70.80;;;;;;2356630;52;21060;-74
2021/12/20 07:29:28;;;;;;;8.82;3.97;;;5.30;70.80;;;;;;2570486;52;21792;-75
2021/12/20 07:31:54;;;;;;;8.95;4.25;;;5.30;70.90;;;;;;2522262;52;21837;-73
2021/12/20 07:34:20;;;;;;;8.52;4.12;;;5.30;70.90;;;;;;2351972;53;21829;-75
2021/12/20 07:36:46;;;;;;;8.48;4.55;;;5.30;70.90;;;;;;2364753;53;21044;-73
2021/12/20 07:39:13;;;;;;;7.90;3.83;;;5.30;71.10;;;;;;2611214;52;20909;-74
2021/12/20 07:41:51;;;;;;;8.98;4.68;;;5.30;71.10;;;;;;2558771;52;20988;-72
2021/12/20 07:44:17;;;;;;;8.07;4.40;;;5.40;71.30;;;;;;2365510;53;21509;-69
2021/12/20 07:46:43;;;;;;;7.47;4.25;;;5.40;71.40;;;;;;2362240;53;20965;-69
2021/12/20 07:49:10;;;;;;;8.20;4.00;;;5.40;71.40;;;;;;2361872;53;21482;-70
2021/12/20 07:51:36;;;;;;;9.35;4.95;;;5.40;71.40;;;;;;2369493;53;20988;-69
2021/12/20 07:54:02;;;;;;;9.27;4.62;;;5.40;72.10;;;;;;2372209;54;22177;-69
2021/12/20 07:56:28;;;;;;;9.32;4.55;;;5.40;71.50;;;;;;2371534;54;22065;-69
2021/12/20 07:58:59;;;;;;;11.20;5.35;;;5.40;71.50;;;;;;2371867;54;20931;-70
2021/12/20 08:01:26;;;;;;;7.82;4.22;;;5.50;71.60;;;;;;2349717;53;20952;-70
2021/12/20 08:03:56;;;;;;;10.63;4.78;;;5.50;71.50;;;;;;2360864;53;21364;-70
2021/12/20 08:06:22;;;;;;;8.90;4.40;;;5.50;71.40;;;;;;2361035;53;20936;-70
2021/12/20 08:08:49;;;;;;;7.12;4.03;;;5.50;71.40;;;;;;2349625;53;20912;-70
2021/12/20 08:11:15;;;;;;;8.32;4.57;;;5.50;71.40;;;;;;2466618;52;21428;-70
2021/12/20 08:13:44;;;;;;;8.27;4.53;;;5.50;71.40;;;;;;2371871;54;21236;-70
2021/12/20 08:16:14;;;;;;;8.98;4.80;;;5.50;71.40;;;;;;2352204;54;20957;-70
2021/12/20 08:18:41;;;;;;;8.50;4.72;;;5.50;72.00;;;;;;2486114;53;20916;-70
2021/12/20 08:21:07;;;;;;;10.18;5.25;;;5.50;71.30;;;;;;2377391;52;20908;-72
2021/12/20 08:23:36;;;;;;;9.87;5.07;;;5.60;71.30;;;;;;2411766;52;3209773;-71
2021/12/20 08:26:03;;;;;;;8.93;4.20;;;5.50;71.20;;;;;;2358404;53;20948;-70
2021/12/20 08:28:32;;;;;;;8.13;4.45;;;5.50;71.20;;;;;;2363365;53;20976;-70
2021/12/20 08:30:59;;;;;;;8.10;4.45;;;5.60;71.40;;;;;;2624832;52;20929;-70
2021/12/20 08:33:26;;;;;;;8.70;4.50;;;5.60;71.40;;;;;;2361080;53;20916;-71
2021/12/20 08:35:54;;;;;;;8.80;4.62;;;5.60;71.50;;;;;;2482514;52;21044;-72
2021/12/20 08:38:20;;;;;;;9.00;4.45;;;5.60;71.60;;;;;;2392963;52;20936;-70
2021/12/20 08:40:47;;;;;;;9.82;4.97;;;5.60;71.60;;;;;;2372435;53;20952;-69
2021/12/20 08:43:16;;;;;;;13.40;5.40;;;5.60;71.70;;;;;;2499905;52;21001;-70
2021/12/20 08:45:43;;;;;;;10.35;5.30;;;5.60;71.70;;;;;;2352005;53;20992;-69
2021/12/20 08:48:09;;;;;;;9.57;4.72;;;5.70;71.90;;;;;;2352334;53;21743;-72
2021/12/20 08:50:35;;;;;;;8.25;4.35;;;5.70;72.00;;;;;;2356850;53;21292;-68
2021/12/20 08:53:02;;;;;;;8.80;4.80;;;5.70;72.20;;;;;;2370060;54;21448;-68
2021/12/20 08:55:28;;;;;;;10.82;5.80;;;5.80;72.30;;;;;;2361809;53;20981;-69
2021/12/20 08:57:55;;;;;;;10.15;4.93;;;5.80;72.30;;;;;;2346222;53;20931;-69
2021/12/20 09:00:25;;;;;;;8.98;4.93;;;5.80;72.20;;;;;;2520415;52;20925;-69
2021/12/20 09:02:51;;;;;;;10.80;5.78;;;5.90;72.10;;;;;;2336823;54;21091;-69
2021/12/20 09:05:19;;;;;;;11.95;6.53;;;5.90;72.10;;;;;;2359959;53;21538;-70
2021/12/20 09:07:45;;;;;;;10.57;5.93;;;5.90;71.90;;;;;;2352939;53;21000;-69
2021/12/20 09:10:12;;;;;;;9.65;5.12;;;6.00;72.10;;;;;;2467071;52;21024;-70
2021/12/20 09:12:39;;;;;;;10.30;5.60;;;6.00;72.10;;;;;;2375738;52;21020;-70
2021/12/20 09:15:09;;;;;;;11.93;5.87;;;6.00;72.10;;;;;;2371766;54;20941;-73
2021/12/20 09:17:35;;;;;;;10.93;6.05;;;6.10;72.10;;;;;;2368561;53;21407;-69
2021/12/20 09:20:01;;;;;;;9.82;5.75;;;6.10;72.80;;;;;;2352421;53;21331;-69
2021/12/20 09:22:29;;;;;;;10.57;5.32;;;6.10;72.00;;;;;;2346374;53;20967;-69
2021/12/20 09:24:56;;;;;;;10.63;5.85;;;6.10;72.00;;;;;;2341606;54;20925;-69
2021/12/20 09:27:22;;;;;;;11.20;6.07;;;6.20;72.10;;;;;;2363628;53;20928;-69
2021/12/20 09:29:48;;;;;;;10.65;5.60;;;6.20;72.20;;;;;;2358477;53;20921;-70
2021/12/20 09:32:16;;;;;;;10.63;5.55;;;6.30;72.30;;;;;;2360620;53;21076;-69
2021/12/20 09:34:42;;;;;;;11.15;6.00;;;6.30;72.30;;;;;;2363423;53;20972;-69
2021/12/20 09:37:08;;;;;;;12.63;7.12;;;6.30;72.20;;;;;;2504953;52;20945;-69
2021/12/20 09:39:38;;;;;;;12.00;6.90;;;6.40;72.30;;;;;;2371707;54;21708;-69
2021/12/20 09:42:05;;;;;;;10.63;5.97;;;6.40;72.30;;;;;;2366471;53;20982;-69
2021/12/20 09:44:32;;;;;;;10.38;5.62;;;6.40;72.40;;;;;;2354625;53;20968;-69
2021/12/20 09:46:59;;;;;;;11.38;5.82;;;6.50;72.60;;;;;;2420140;52;20956;-70
2021/12/20 09:49:25;;;;;;;11.43;6.10;;;6.50;72.60;;;;;;2352896;53;20928;-69
2021/12/20 09:51:52;;;;;;;12.37;6.90;;;6.60;72.60;;;;;;2371000;53;21046;-70
2021/12/20 09:54:19;;;;;;;12.45;6.82;;;6.60;72.50;;;;;;2372053;54;20968;-69
2021/12/20 09:56:45;;;;;;;11.63;6.07;;;6.70;72.40;;;;;;2372010;53;20941;-69
2021/12/20 09:59:16;;;;;;;12.25;6.22;;;6.70;72.30;;;;;;2371372;54;20948;-69
2021/12/20 10:01:43;;;;;;;11.23;6.78;;;6.70;72.20;;;;;;2371884;54;21004;-69
2021/12/20 10:04:11;;;;;;;14.38;7.47;;;6.70;72.20;;;;;;2371908;54;21252;-69
2021/12/20 10:06:39;;;;;;;13.35;7.25;;;6.80;72.20;;;;;;2371892;54;20968;-71
2021/12/20 10:09:14;;;;;;;11.63;6.40;;;6.80;72.20;;;;;;2372533;54;20951;-72
2021/12/20 10:11:40;;;;;;;12.50;6.60;;;6.80;72.30;;;;;;2560617;52;20948;-73
2021/12/20 10:14:16;;;;;;;13.55;7.05;;;6.90;72.50;;;;;;2360068;52;21602;-73
2021/12/20 10:16:43;;;;;;;12.68;6.55;;;6.90;72.20;;;;;;2352030;53;21012;-72
2021/12/20 10:19:29;;;;;;;14.40;6.95;;;6.90;72.20;;;;;;2387480;52;21012;-71
2021/12/20 10:21:58;;;;;;;16.62;8.23;;;7.00;72.60;;;;;;2371997;54;21013;-72
2021/12/20 10:24:38;;;;;;;22.02;10.43;;;7.00;72.40;;;;;;2351161;53;20964;-72
2021/12/20 10:27:04;;;;;;;17.55;8.23;;;7.10;72.50;;;;;;2351995;54;21545;-71
2021/12/20 10:29:31;;;;;;;12.93;6.72;;;7.10;72.80;;;;;;2372695;54;20976;-71
2021/12/20 10:31:57;;;;;;;12.05;6.70;;;7.20;72.90;;;;;;2371532;54;20995;-70
2021/12/20 10:34:34;;;;;;;12.32;6.97;;;7.20;72.90;;;;;;2371974;54;20967;-70
2021/12/20 10:37:01;;;;;;;13.02;6.25;;;7.30;72.80;;;;;;2371903;54;22027;-72
2021/12/20 10:39:43;;;;;;;10.98;5.70;;;7.30;72.80;;;;;;2351533;53;20972;-72
2021/12/20 10:42:21;;;;;;;12.60;5.75;;;7.40;72.50;;;;;;2373958;54;21015;-74
2021/12/20 10:45:19;;;;;;;10.73;5.68;;;7.40;72.20;;;;;;2352718;52;20932;-71
2021/12/20 10:47:46;;;;;;;10.68;5.45;;;7.50;72.30;;;;;;2374799;54;20929;-72
2021/12/20 10:51:16;;;;;;;9.57;5.37;;;7.50;72.50;;;;;;2351260;53;20944;-73
2021/12/20 10:53:48;;;;;;;9.38;4.60;;;7.50;71.70;;;;;;2374465;53;21004;-73
2021/12/20 10:56:14;;;;;;;8.23;4.62;;;7.60;72.40;;;;;;2371872;54;20917;-72
2021/12/20 10:58:50;;;;;;;9.15;5.15;;;7.60;72.40;;;;;;2403615;52;20969;-73
2021/12/20 11:05:26;;;;;;;10.40;5.53;;;7.60;71.70;;;;;;2372888;54;21036;-71
2021/12/20 11:10:39;;;;;;;11.55;6.50;;;7.70;72.10;;;;;;2532648;52;20892;-73
2021/12/20 11:13:16;;;;;;;10.93;6.65;;;7.70;72.10;;;;;;2371978;54;20925;-71
2021/12/20 11:15:43;;;;;;;11.07;6.03;;;7.70;72.50;;;;;;2351979;54;20968;-72
2021/12/20 11:18:15;;;;;;;9.82;5.55;;;7.70;72.10;;;;;;2339085;53;20952;-69
2021/12/20 11:20:43;;;;;;;10.15;5.47;;;7.80;72.10;;;;;;2339403;54;21347;-71
2021/12/20 11:23:12;;;;;;;10.55;5.90;;;7.80;73.00;;;;;;2624395;52;21695;-71
2021/12/20 11:25:38;;;;;;;13.27;6.47;;;7.80;72.40;;;;;;2358363;53;20920;-71
2021/12/20 11:28:05;;;;;;;11.18;6.20;;;7.90;72.60;;;;;;2347569;53;20936;-71
2021/12/20 11:30:31;;;;;;;13.52;6.60;;;7.90;72.70;;;;;;2369055;53;21605;-70
2021/12/20 11:32:57;;;;;;;13.55;6.90;;;7.90;72.70;;;;;;2483342;52;21236;-73
2021/12/20 11:35:24;;;;;;;14.77;6.95;;;8.00;72.80;;;;;;2351767;53;21367;-69
2021/12/20 11:37:51;;;;;;;13.20;7.05;;;8.10;72.90;;;;;;2371834;54;21032;-71
2021/12/20 11:40:18;;;;;;;12.82;6.97;;;8.10;72.80;;;;;;2357997;53;20881;-75
2021/12/20 11:42:45;;;;;;;11.27;6.80;;;8.10;72.70;;;;;;2364240;53;20952;-75
2021/12/20 11:45:14;;;;;;;12.88;6.68;;;8.20;72.90;;;;;;2359330;53;20909;-76
2021/12/20 11:48:04;;;;;;;13.35;6.40;;;8.30;72.90;;;;;;2430427;52;21253;-75
2021/12/20 11:50:33;;;;;;;11.30;6.35;;;8.40;72.70;;;;;;2352222;53;21031;-75
2021/12/20 11:53:19;;;;;;;14.10;6.80;;;8.40;73.10;;;;;;2371274;54;21821;-75
2021/12/20 11:55:50;;;;;;;13.57;6.90;;;8.50;72.60;;;;;;2361763;53;21040;-78
2021/12/20 11:58:19;;;;;;;13.07;6.60;;;8.50;72.80;;;;;;2343545;53;21023;-76
2021/12/20 12:00:49;;;;;;;11.50;6.18;;;8.60;72.90;;;;;;2353127;53;20963;-75
2021/12/20 12:03:19;;;;;;;12.40;6.65;;;8.60;72.80;;;;;;2356333;53;20949;-75
2021/12/20 12:05:52;;;;;;;12.68;6.68;;;8.70;72.60;;;;;;2597561;52;21678;-75
2021/12/20 12:15:27;;;;;;;10.77;5.90;;;8.70;72.40;;;;;;2371461;53;21488;-75
2021/12/20 12:17:56;;;;;;;10.00;4.93;;;8.70;71.90;;;;;;2376320;53;21040;-75
2021/12/20 12:24:06;;;;;;;10.43;5.05;;;8.80;71.30;;;;;;2394695;53;20997;-75
2021/12/20 12:26:40;;;;;;;9.05;4.70;;;8.70;70.20;;;;;;2373592;53;20941;-75
2021/12/20 12:29:13;;;;;;;10.52;5.60;;;8.70;70.80;;;;;;2354198;53;20969;-75
2021/12/20 12:33:32;;;;;;;11.68;6.37;;;8.60;70.90;;;;;;2365352;53;21074;-75
2021/12/20 12:36:00;;;;;;;11.07;5.50;;;8.60;70.10;;;;;;2375701;53;20984;-75
2021/12/20 12:45:24;;;;;;;11.93;5.87;;;8.60;71.00;;;;;;2333315;54;20944;-75
2021/12/20 12:47:54;;;;;;;11.98;4.80;;;8.50;70.50;;;;;;2408979;52;21080;-75
2021/12/20 12:50:26;;;;;;;9.25;5.28;;;8.50;71.00;;;;;;2367873;53;21027;-75
2021/12/20 12:52:53;;;;;;;10.30;6.05;;;8.50;71.00;;;;;;2428560;52;20969;-75
2021/12/20 12:55:26;;;;;;;12.60;6.25;;;8.50;71.30;;;;;;2495947;52;21019;-75
2021/12/20 12:57:52;;;;;;;11.85;6.35;;;8.40;71.00;;;;;;2351967;53;20984;-76
2021/12/20 13:00:27;;;;;;;13.10;6.82;;;8.40;71.20;;;;;;2365672;53;21000;-75
2021/12/20 13:02:57;;;;;;;13.32;7.20;;;8.40;71.00;;;;;;2359269;53;20892;-75
2021/12/20 13:05:25;;;;;;;9.63;5.47;;;8.40;71.10;;;;;;2373285;54;20917;-75
2021/12/20 13:08:02;;;;;;;10.77;5.87;;;8.40;71.10;;;;;;2371869;54;21063;-75
2021/12/20 13:10:33;;;;;;;11.98;6.78;;;8.40;71.00;;;;;;2372953;54;21386;-75
2021/12/20 13:13:06;;;;;;;13.20;7.20;;;8.40;71.30;;;;;;2372632;52;20998;-75
2021/12/20 13:15:37;;;;;;;14.20;7.35;;;8.40;71.40;;;;;;2398612;52;20953;-75
2021/12/20 13:18:14;;;;;;;12.57;7.50;;;8.40;71.60;;;;;;2360967;53;20925;-75
2021/12/20 13:20:59;;;;;;;13.75;7.53;;;8.40;71.70;;;;;;2392811;52;21772;-74
2021/12/20 13:23:49;;;;;;;11.82;6.70;;;8.40;71.60;;;;;;2371858;52;20925;-77
2021/12/20 13:26:21;;;;;;;10.88;6.45;;;8.40;71.70;;;;;;2480925;52;20936;-78
2021/12/20 13:28:50;;;;;;;14.95;8.48;;;8.40;71.90;;;;;;2371133;53;20944;-76
2021/12/20 13:31:24;;;;;;;14.63;7.60;;;8.50;72.60;;;;;;2394635;52;20936;-77
2021/12/20 13:33:51;;;;;;;13.85;7.50;;;8.50;71.80;;;;;;2372496;54;20936;-75
2021/12/20 13:36:34;;;;;;;15.50;8.05;;;8.50;71.90;;;;;;2372000;54;20953;-75